Time;durP1;ratioP1;P1;durP2;ratioP2;P2;SDS_P1;SDS_P2;PMS_P1;PMS_P2;Temp;Humidity;BMP_temperature;BMP_pressure;BME280_temperature;BME280_humidity;BME280_pressure;Samples;Min_cycle;Max_cycle;Signal;HPM_P1;HPM_P2
2022/01/14 00:01:26;;;;;;;14.03;9.03;;;;;;;;;;4983314;28;20551;-68
2022/01/14 00:03:53;;;;;;;14.47;8.87;;;;;;;;;;4985578;28;20461;-68
2022/01/14 00:06:20;;;;;;;14.63;10.83;;;;;;;;;;4983089;28;20485;-68
2022/01/14 00:08:47;;;;;;;15.90;10.53;;;;;;;;;;4975804;28;20484;-68
2022/01/14 00:11:17;;;;;;;22.67;13.47;;;;;;;;;;4982591;28;20497;-68
2022/01/14 00:13:54;;;;;;;22.90;11.80;;;;;;;;;;4978792;28;20550;-68
2022/01/14 00:16:22;;;;;;;24.67;11.07;;;;;;;;;;4980526;28;20471;-70
2022/01/14 00:18:50;;;;;;;17.40;10.17;;;;;;;;;;4985499;28;20456;-70
2022/01/14 00:21:17;;;;;;;19.27;11.43;;;;;;;;;;4985455;28;20943;-70
2022/01/14 00:23:46;;;;;;;17.53;11.80;;;;;;;;;;4979215;28;20559;-68
2022/01/14 00:31:48;;;;;;;18.83;10.37;;;;;;;;;;4978517;28;20547;-70
2022/01/14 00:34:16;;;;;;;14.47;10.00;;;;;;;;;;4980798;28;20446;-70
2022/01/14 00:36:43;;;;;;;21.33;12.60;;;;;;;;;;4991800;28;20457;-70
2022/01/14 00:39:11;;;;;;;20.30;12.27;;;;;;;;;;4979934;28;20457;-70
2022/01/14 00:41:39;;;;;;;21.13;11.63;;;;;;;;;;4991191;28;20556;-69
2022/01/14 00:44:10;;;;;;;18.97;10.93;;;;;;;;;;4991944;28;20460;-69
2022/01/14 00:46:37;;;;;;;17.47;10.00;;;;;;;;;;4991779;28;20473;-68
2022/01/14 00:49:06;;;;;;;17.10;11.60;;;;;;;;;;4991804;28;20527;-68
2022/01/14 00:51:35;;;;;;;17.50;12.30;;;;;;;;;;4991836;28;20972;-68
2022/01/14 00:54:02;;;;;;;21.00;10.20;;;;;;;;;;4991663;28;20463;-68
2022/01/14 00:56:33;;;;;;;18.27;11.33;;;;;;;;;;4991738;28;20552;-69
2022/01/14 00:59:15;;;;;;;24.60;12.20;;;;;;;;;;4978577;28;20460;-68
2022/01/14 01:01:43;;;;;;;19.13;11.20;;;;;;;;;;4980389;28;20496;-68
2022/01/14 01:04:12;;;;;;;22.33;11.47;;;;;;;;;;4985648;28;20472;-68
2022/01/14 01:06:39;;;;;;;18.83;10.93;;;;;;;;;;4983514;28;20485;-69
2022/01/14 01:09:10;;;;;;;20.33;12.63;;;;;;;;;;4979549;28;20456;-68
2022/01/14 01:11:40;;;;;;;15.87;11.33;;;;;;;;;;4979375;28;20473;-69
2022/01/14 01:14:12;;;;;;;17.07;10.80;;;;;;;;;;4985632;28;20446;-68
2022/01/14 01:16:39;;;;;;;22.80;13.43;;;;;;;;;;4985241;28;20449;-68
2022/01/14 01:19:06;;;;;;;25.63;12.13;;;;;;;;;;4979774;28;20444;-69
2022/01/14 01:21:35;;;;;;;19.43;10.20;;;;;;;;;;4978149;28;20456;-68
2022/01/14 01:24:03;;;;;;;16.63;10.47;;;;;;;;;;4985702;28;20529;-69
2022/01/14 01:26:33;;;;;;;17.67;10.17;;;;;;;;;;4995241;28;20600;-69
2022/01/14 01:29:16;;;;;;;19.73;11.27;;;;;;;;;;4980553;28;20437;-69
2022/01/14 01:31:45;;;;;;;16.27;10.87;;;;;;;;;;4977618;28;20441;-69
2022/01/14 01:34:13;;;;;;;17.60;10.40;;;;;;;;;;4980993;28;20461;-68
2022/01/14 01:36:43;;;;;;;19.40;10.87;;;;;;;;;;4984928;28;20541;-68
2022/01/14 01:39:11;;;;;;;17.47;10.70;;;;;;;;;;4984432;28;20859;-68
2022/01/14 01:41:39;;;;;;;15.50;10.70;;;;;;;;;;4984090;28;20541;-68
2022/01/14 01:44:07;;;;;;;21.50;12.67;;;;;;;;;;4984415;28;20587;-69
2022/01/14 01:46:37;;;;;;;15.80;10.47;;;;;;;;;;4978921;28;20507;-68
2022/01/14 01:49:05;;;;;;;20.67;12.80;;;;;;;;;;4978646;28;20491;-69
2022/01/14 01:51:33;;;;;;;20.00;11.07;;;;;;;;;;4988709;28;20518;-69
2022/01/14 01:54:01;;;;;;;19.03;11.23;;;;;;;;;;4994827;28;20449;-69
2022/01/14 01:56:28;;;;;;;15.87;11.23;;;;;;;;;;5010695;28;20472;-70
2022/01/14 01:58:56;;;;;;;20.43;12.50;;;;;;;;;;4989178;28;20457;-69
2022/01/14 02:01:24;;;;;;;23.10;12.17;;;;;;;;;;4980289;28;20464;-69
2022/01/14 02:03:51;;;;;;;18.27;10.20;;;;;;;;;;4977447;28;20549;-69
2022/01/14 02:06:19;;;;;;;20.27;10.10;;;;;;;;;;4982822;28;20492;-69
2022/01/14 02:08:46;;;;;;;18.13;11.07;;;;;;;;;;4986326;28;20812;-69
2022/01/14 02:11:15;;;;;;;20.03;12.07;;;;;;;;;;4991005;28;20456;-69
2022/01/14 02:13:43;;;;;;;16.80;10.73;;;;;;;;;;4984251;28;21679;-69
2022/01/14 02:16:19;;;;;;;14.97;10.03;;;;;;;;;;4991593;28;21003;-69
2022/01/14 02:19:11;;;;;;;17.70;11.40;;;;;;;;;;4977989;28;20440;-69
2022/01/14 02:24:44;;;;;;;18.17;10.63;;;;;;;;;;4980913;28;20429;-69
2022/01/14 02:27:12;;;;;;;18.87;9.97;;;;;;;;;;4978441;28;20980;-69
2022/01/14 02:29:40;;;;;;;18.87;10.57;;;;;;;;;;4977468;28;20460;-69
2022/01/14 02:32:08;;;;;;;16.77;11.03;;;;;;;;;;4983506;28;20546;-69
2022/01/14 02:34:35;;;;;;;17.07;11.50;;;;;;;;;;4986429;28;20464;-69
2022/01/14 02:37:04;;;;;;;16.90;9.13;;;;;;;;;;4994728;28;20536;-70
2022/01/14 02:39:31;;;;;;;16.80;12.10;;;;;;;;;;4982131;28;21338;-69
2022/01/14 02:41:58;;;;;;;17.20;10.70;;;;;;;;;;4984265;28;20453;-69
2022/01/14 02:44:27;;;;;;;20.00;12.30;;;;;;;;;;4992387;28;20465;-69
2022/01/14 02:46:57;;;;;;;16.40;10.07;;;;;;;;;;4984433;28;21084;-69
2022/01/14 02:49:27;;;;;;;21.47;12.90;;;;;;;;;;4981196;28;20582;-69
2022/01/14 02:51:54;;;;;;;24.27;12.90;;;;;;;;;;4982602;28;20664;-69
2022/01/14 02:54:30;;;;;;;19.83;12.53;;;;;;;;;;4988002;28;20505;-69
2022/01/14 02:56:57;;;;;;;16.43;11.63;;;;;;;;;;4986978;28;20553;-69
2022/01/14 02:59:25;;;;;;;20.60;11.53;;;;;;;;;;4987678;28;20572;-69
2022/01/14 03:01:52;;;;;;;17.27;10.47;;;;;;;;;;4986568;28;20539;-69
2022/01/14 03:04:20;;;;;;;20.53;11.17;;;;;;;;;;4981029;28;20560;-69
2022/01/14 03:06:48;;;;;;;20.80;12.00;;;;;;;;;;4979674;28;20485;-69
2022/01/14 03:09:15;;;;;;;22.43;12.53;;;;;;;;;;4987175;28;20621;-69
2022/01/14 03:11:45;;;;;;;20.53;12.33;;;;;;;;;;4986485;28;20454;-69
2022/01/14 03:14:14;;;;;;;19.30;11.80;;;;;;;;;;4999890;28;20948;-69
2022/01/14 03:16:42;;;;;;;20.40;12.27;;;;;;;;;;4980130;28;20459;-68
2022/01/14 03:19:16;;;;;;;18.33;11.40;;;;;;;;;;4985592;28;20485;-69
2022/01/14 03:21:43;;;;;;;23.30;11.77;;;;;;;;;;4986270;28;20461;-69
2022/01/14 03:24:23;;;;;;;18.60;10.83;;;;;;;;;;4983874;28;20525;-69
2022/01/14 03:26:53;;;;;;;17.27;11.93;;;;;;;;;;4979884;28;20498;-68
2022/01/14 03:29:21;;;;;;;22.57;11.80;;;;;;;;;;4981364;28;21024;-69
2022/01/14 03:31:48;;;;;;;24.10;12.83;;;;;;;;;;4985715;28;20905;-69
2022/01/14 03:34:16;;;;;;;22.03;12.03;;;;;;;;;;4986321;28;20465;-69
2022/01/14 03:36:43;;;;;;;21.00;12.37;;;;;;;;;;4992611;28;20537;-69
2022/01/14 03:39:10;;;;;;;19.30;12.33;;;;;;;;;;4980863;28;20546;-69
2022/01/14 03:41:37;;;;;;;19.33;12.90;;;;;;;;;;4986275;28;20453;-69
2022/01/14 03:44:06;;;;;;;24.90;14.87;;;;;;;;;;4992576;28;20563;-70
2022/01/14 03:46:33;;;;;;;23.33;10.67;;;;;;;;;;4992397;28;20487;-69
2022/01/14 03:49:00;;;;;;;21.47;11.63;;;;;;;;;;4993093;28;20484;-69
2022/01/14 03:51:28;;;;;;;17.90;11.90;;;;;;;;;;4992863;28;20459;-69
2022/01/14 03:53:55;;;;;;;20.80;11.60;;;;;;;;;;4992646;28;20492;-69
2022/01/14 03:56:23;;;;;;;20.37;11.87;;;;;;;;;;4993053;28;20552;-69
2022/01/14 03:58:51;;;;;;;21.37;10.97;;;;;;;;;;4992099;28;20467;-69
2022/01/14 04:01:20;;;;;;;17.77;10.80;;;;;;;;;;4992339;28;20944;-69
2022/01/14 04:03:48;;;;;;;19.07;11.33;;;;;;;;;;4992142;28;20449;-69
2022/01/14 04:06:16;;;;;;;17.80;9.37;;;;;;;;;;4992635;28;20455;-69
2022/01/14 04:08:43;;;;;;;14.90;10.10;;;;;;;;;;4991966;28;20536;-69
2022/01/14 04:11:11;;;;;;;20.47;12.63;;;;;;;;;;4992588;28;20448;-69
2022/01/14 04:13:45;;;;;;;15.13;10.80;;;;;;;;;;4991565;28;20512;-69
2022/01/14 04:16:13;;;;;;;20.50;11.80;;;;;;;;;;4982658;28;20457;-69
2022/01/14 04:18:41;;;;;;;19.77;12.80;;;;;;;;;;4986043;28;20460;-69
2022/01/14 04:21:08;;;;;;;23.80;12.87;;;;;;;;;;4983983;28;20541;-69
2022/01/14 04:23:36;;;;;;;19.07;12.00;;;;;;;;;;4978687;28;20452;-69
2022/01/14 04:26:03;;;;;;;20.60;12.30;;;;;;;;;;4981665;28;20477;-69
2022/01/14 04:28:34;;;;;;;17.50;11.03;;;;;;;;;;4985898;28;20497;-69
2022/01/14 04:31:01;;;;;;;19.73;11.40;;;;;;;;;;4984366;28;20507;-69
2022/01/14 04:33:29;;;;;;;27.10;13.07;;;;;;;;;;4979072;28;20543;-69
2022/01/14 04:35:58;;;;;;;18.80;11.90;;;;;;;;;;4991284;28;20445;-69
2022/01/14 04:38:26;;;;;;;20.00;11.80;;;;;;;;;;4979441;28;20816;-69
2022/01/14 04:40:53;;;;;;;15.93;10.90;;;;;;;;;;4991280;28;20455;-69
2022/01/14 04:43:21;;;;;;;20.63;11.57;;;;;;;;;;4981820;28;20514;-70
2022/01/14 04:46:12;;;;;;;20.30;10.70;;;;;;;;;;4978243;28;21020;-68
2022/01/14 04:48:40;;;;;;;21.87;11.40;;;;;;;;;;4981235;28;20451;-68
2022/01/14 04:51:09;;;;;;;20.23;9.90;;;;;;;;;;4985186;28;20456;-69
2022/01/14 04:53:36;;;;;;;19.33;10.90;;;;;;;;;;4982797;28;20456;-69
2022/01/14 04:56:04;;;;;;;15.10;10.47;;;;;;;;;;4978626;28;20517;-69
2022/01/14 04:58:31;;;;;;;27.87;12.93;;;;;;;;;;4980476;28;20461;-69
2022/01/14 05:00:58;;;;;;;20.83;11.60;;;;;;;;;;4984165;28;20803;-69
2022/01/14 05:03:25;;;;;;;15.27;11.17;;;;;;;;;;4984198;28;20461;-69
2022/01/14 05:05:56;;;;;;;17.30;9.27;;;;;;;;;;4978205;28;20867;-68
2022/01/14 05:08:25;;;;;;;19.23;10.63;;;;;;;;;;4978838;28;20482;-69
2022/01/14 05:11:04;;;;;;;17.97;12.23;;;;;;;;;;4978275;28;20448;-69
2022/01/14 05:13:31;;;;;;;17.57;10.90;;;;;;;;;;4996466;28;20465;-70
2022/01/14 05:15:58;;;;;;;15.53;10.80;;;;;;;;;;4982123;28;20541;-69
2022/01/14 05:18:26;;;;;;;24.40;14.10;;;;;;;;;;4985051;28;20494;-69
2022/01/14 05:20:53;;;;;;;16.73;10.73;;;;;;;;;;4980138;28;20931;-69
2022/01/14 05:23:21;;;;;;;22.30;11.77;;;;;;;;;;4978582;28;20534;-70
2022/01/14 05:25:49;;;;;;;20.10;11.97;;;;;;;;;;4981422;28;20573;-68
2022/01/14 05:28:16;;;;;;;16.97;10.77;;;;;;;;;;4984678;28;20909;-69
2022/01/14 05:30:43;;;;;;;16.87;11.10;;;;;;;;;;4981414;28;21081;-69
2022/01/14 05:33:11;;;;;;;17.83;10.90;;;;;;;;;;4978196;28;20962;-69
2022/01/14 05:35:38;;;;;;;16.63;10.57;;;;;;;;;;4990648;28;20459;-69
2022/01/14 05:38:05;;;;;;;20.90;11.67;;;;;;;;;;4987345;28;20894;-69
2022/01/14 05:40:33;;;;;;;15.83;10.10;;;;;;;;;;4981959;28;20541;-69
2022/01/14 05:43:01;;;;;;;21.67;11.10;;;;;;;;;;4983120;28;20461;-69
2022/01/14 05:45:29;;;;;;;20.27;11.83;;;;;;;;;;4980414;28;20454;-69
2022/01/14 05:47:56;;;;;;;21.33;12.00;;;;;;;;;;4988908;28;20488;-69
2022/01/14 05:50:24;;;;;;;18.70;13.00;;;;;;;;;;4980280;28;20496;-69
2022/01/14 05:52:52;;;;;;;19.00;11.50;;;;;;;;;;4984017;28;20551;-69
2022/01/14 05:55:20;;;;;;;17.17;11.93;;;;;;;;;;4983439;28;20456;-70
2022/01/14 05:57:48;;;;;;;19.40;10.90;;;;;;;;;;4977716;28;20864;-69
2022/01/14 06:00:17;;;;;;;24.00;11.60;;;;;;;;;;4979028;28;20469;-69
2022/01/14 06:02:45;;;;;;;21.80;13.50;;;;;;;;;;4983964;28;20458;-69
2022/01/14 06:05:12;;;;;;;20.90;11.10;;;;;;;;;;4984675;28;20483;-68
2022/01/14 06:07:40;;;;;;;18.30;10.13;;;;;;;;;;4984274;28;20487;-68
2022/01/14 06:10:08;;;;;;;19.27;10.57;;;;;;;;;;4987074;28;20536;-68
2022/01/14 06:12:35;;;;;;;18.83;10.63;;;;;;;;;;4985560;28;20445;-69
2022/01/14 06:15:03;;;;;;;18.27;10.43;;;;;;;;;;5000252;28;20799;-68
2022/01/14 06:17:31;;;;;;;15.17;10.20;;;;;;;;;;4982839;28;20542;-69
2022/01/14 06:19:58;;;;;;;20.47;11.83;;;;;;;;;;4980776;28;20543;-68
2022/01/14 06:22:25;;;;;;;14.10;10.47;;;;;;;;;;4986323;28;20546;-67
2022/01/14 06:24:53;;;;;;;15.40;10.17;;;;;;;;;;4987246;28;20495;-67
2022/01/14 06:27:20;;;;;;;17.03;11.77;;;;;;;;;;4983107;28;20570;-68
2022/01/14 06:29:47;;;;;;;17.53;11.47;;;;;;;;;;4980480;28;20458;-67
2022/01/14 06:32:14;;;;;;;23.07;10.50;;;;;;;;;;4986222;28;20546;-68
2022/01/14 06:34:43;;;;;;;24.77;11.30;;;;;;;;;;4988791;28;20539;-68
2022/01/14 06:37:10;;;;;;;19.00;12.10;;;;;;;;;;4994587;28;20547;-68
2022/01/14 06:39:37;;;;;;;20.60;11.30;;;;;;;;;;4981048;28;20454;-67
2022/01/14 06:42:04;;;;;;;18.87;11.83;;;;;;;;;;4984229;28;20485;-67
2022/01/14 06:44:32;;;;;;;23.23;12.57;;;;;;;;;;4992987;28;20624;-67
2022/01/14 06:46:59;;;;;;;16.00;9.80;;;;;;;;;;4984363;28;20473;-68
2022/01/14 06:49:27;;;;;;;15.33;10.20;;;;;;;;;;4981094;28;20545;-67
2022/01/14 06:51:56;;;;;;;16.33;9.10;;;;;;;;;;4983062;28;20828;-68
2022/01/14 06:54:23;;;;;;;16.03;9.20;;;;;;;;;;4987936;28;20452;-68
2022/01/14 06:56:50;;;;;;;15.07;10.83;;;;;;;;;;4985329;28;20466;-68
2022/01/14 06:59:17;;;;;;;27.83;11.30;;;;;;;;;;4980802;28;20541;-68
2022/01/14 07:01:45;;;;;;;15.90;9.67;;;;;;;;;;4981876;28;20533;-68
2022/01/14 07:04:12;;;;;;;14.20;9.17;;;;;;;;;;4987524;28;20547;-67
2022/01/14 07:06:39;;;;;;;19.77;11.17;;;;;;;;;;4984655;28;20511;-68
2022/01/14 07:09:08;;;;;;;16.80;10.13;;;;;;;;;;4980972;28;20497;-68
2022/01/14 07:11:37;;;;;;;13.63;10.13;;;;;;;;;;4981423;28;20555;-68
2022/01/14 07:14:04;;;;;;;17.23;9.57;;;;;;;;;;5003067;28;20452;-68
2022/01/14 07:16:32;;;;;;;15.20;9.00;;;;;;;;;;4981822;28;20457;-68
2022/01/14 07:19:00;;;;;;;13.90;8.47;;;;;;;;;;4986429;28;20453;-68
2022/01/14 07:21:27;;;;;;;13.37;9.57;;;;;;;;;;4985558;28;20540;-68
2022/01/14 07:23:54;;;;;;;14.43;8.57;;;;;;;;;;4986156;28;21280;-68
2022/01/14 07:26:23;;;;;;;16.90;10.00;;;;;;;;;;4986889;28;20929;-68
2022/01/14 07:28:50;;;;;;;14.50;10.00;;;;;;;;;;4980458;28;20539;-68
2022/01/14 07:31:17;;;;;;;14.50;10.10;;;;;;;;;;4980143;28;20458;-68
2022/01/14 07:33:44;;;;;;;12.23;9.07;;;;;;;;;;4985325;28;20460;-68
2022/01/14 07:36:11;;;;;;;13.80;10.13;;;;;;;;;;4990220;28;20453;-68
2022/01/14 07:38:41;;;;;;;13.63;9.43;;;;;;;;;;4984625;28;20544;-68
2022/01/14 07:41:08;;;;;;;15.10;9.70;;;;;;;;;;4986582;28;20462;-68
2022/01/14 07:43:37;;;;;;;16.07;9.90;;;;;;;;;;4987332;28;20552;-68
2022/01/14 07:46:05;;;;;;;13.50;9.80;;;;;;;;;;4979796;28;20967;-68
2022/01/14 07:48:33;;;;;;;16.37;11.07;;;;;;;;;;4983458;28;20512;-68
2022/01/14 07:51:00;;;;;;;18.40;10.73;;;;;;;;;;4985478;28;20458;-68
2022/01/14 07:53:27;;;;;;;12.33;9.83;;;;;;;;;;4984041;28;20543;-68
2022/01/14 07:55:54;;;;;;;17.37;11.10;;;;;;;;;;4979230;28;20705;-70
2022/01/14 07:58:22;;;;;;;20.47;12.00;;;;;;;;;;4982416;28;20450;-68
2022/01/14 08:00:51;;;;;;;21.70;12.50;;;;;;;;;;4985024;28;20930;-68
2022/01/14 08:03:18;;;;;;;18.10;11.33;;;;;;;;;;4984887;28;20531;-68
2022/01/14 08:05:47;;;;;;;12.43;8.40;;;;;;;;;;4979243;28;20453;-68
2022/01/14 08:08:14;;;;;;;11.30;9.07;;;;;;;;;;4981010;28;20496;-68
2022/01/14 08:10:41;;;;;;;13.63;9.67;;;;;;;;;;4985157;28;20541;-68
2022/01/14 08:13:08;;;;;;;11.17;8.20;;;;;;;;;;4993438;28;20448;-68
2022/01/14 08:15:35;;;;;;;14.50;9.00;;;;;;;;;;4986875;28;20545;-68
2022/01/14 08:18:06;;;;;;;14.37;8.47;;;;;;;;;;4985861;28;20452;-69
2022/01/14 08:20:33;;;;;;;15.07;9.20;;;;;;;;;;4979697;28;20447;-68
2022/01/14 08:23:01;;;;;;;14.67;9.13;;;;;;;;;;4979497;28;20454;-68
2022/01/14 08:25:28;;;;;;;16.10;9.63;;;;;;;;;;4985317;28;20529;-68
2022/01/14 08:27:55;;;;;;;19.00;10.43;;;;;;;;;;4985072;28;20496;-68
2022/01/14 08:30:23;;;;;;;19.03;11.13;;;;;;;;;;4979666;28;20546;-68
2022/01/14 08:32:50;;;;;;;22.93;10.87;;;;;;;;;;4978055;28;20866;-68
2022/01/14 08:35:19;;;;;;;18.33;11.23;;;;;;;;;;4991764;28;20448;-70
2022/01/14 08:37:46;;;;;;;18.47;13.90;;;;;;;;;;4989982;28;20456;-69
2022/01/14 08:40:13;;;;;;;17.63;11.13;;;;;;;;;;4980671;28;20449;-68
2022/01/14 08:42:40;;;;;;;20.90;12.83;;;;;;;;;;4983801;28;20531;-68
2022/01/14 08:45:08;;;;;;;18.40;11.80;;;;;;;;;;4983724;28;20520;-68
2022/01/14 08:47:35;;;;;;;17.00;11.60;;;;;;;;;;4985402;28;20453;-68
2022/01/14 08:50:02;;;;;;;21.80;11.87;;;;;;;;;;4981244;28;20636;-69
2022/01/14 08:52:31;;;;;;;14.27;12.10;;;;;;;;;;4979180;28;20477;-68
2022/01/14 08:54:58;;;;;;;19.27;12.27;;;;;;;;;;4981931;28;20493;-68
2022/01/14 08:57:25;;;;;;;21.30;13.93;;;;;;;;;;4985524;28;20541;-69
2022/01/14 08:59:53;;;;;;;22.27;15.90;;;;;;;;;;4980916;28;20453;-69
2022/01/14 09:02:21;;;;;;;23.70;14.53;;;;;;;;;;4978648;28;20475;-69
2022/01/14 09:04:48;;;;;;;21.43;14.03;;;4.70;99.90;;;;;;4981485;28;20461;-68
2022/01/14 09:07:16;;;;;;;18.33;12.20;;;2.10;1.00;;;;;;4985353;28;20540;-69
2022/01/14 09:09:44;;;;;;;17.60;12.50;;;2.00;1.00;;;;;;4981910;28;20506;-68
2022/01/14 09:12:15;;;;;;;27.30;13.87;;;1.80;99.90;;;;;;4978051;28;20968;-68
2022/01/14 09:14:42;;;;;;;21.57;12.90;;;2.10;1.00;;;;;;4998910;28;20453;-68
2022/01/14 09:17:09;;;;;;;20.23;12.90;;;2.10;99.90;;;;;;4978404;28;20527;-69
2022/01/14 09:19:36;;;;;;;17.63;12.57;;;2.20;99.90;;;;;;4979397;28;20449;-68
2022/01/14 09:22:03;;;;;;;17.80;12.53;;;2.20;99.90;;;;;;4984584;28;20482;-69
2022/01/14 09:24:30;;;;;;;19.20;12.47;;;2.40;99.90;;;;;;4984069;28;20453;-69
2022/01/14 09:26:59;;;;;;;17.00;12.63;;;2.40;1.00;;;;;;4977998;28;20496;-69
2022/01/14 09:29:25;;;;;;;21.60;12.40;;;2.40;99.90;;;;;;4979275;28;20580;-69
2022/01/14 09:31:52;;;;;;;20.00;10.80;;;2.60;1.00;;;;;;4984242;28;20541;-69
2022/01/14 09:34:20;;;;;;;20.10;12.97;;;;;;;;;;4984193;28;20540;-69
2022/01/14 09:36:47;;;;;;;19.13;12.33;;;;;;;;;;4978150;28;20457;-69
2022/01/14 09:39:14;;;;;;;20.47;10.87;;;;;;;;;;4978654;28;20529;-69
2022/01/14 09:41:41;;;;;;;15.27;10.07;;;;;;;;;;4971323;28;20477;-68
2022/01/14 09:44:10;;;;;;;14.30;10.13;;;;;;;;;;4991338;28;20520;-69
2022/01/14 09:46:38;;;;;;;16.30;10.47;;;;;;;;;;4982656;28;20540;-70
2022/01/14 09:49:05;;;;;;;16.67;10.73;;;;;;;;;;4982299;28;20556;-69
2022/01/14 09:51:32;;;;;;;13.97;9.97;;;;;;;;;;4988183;28;20460;-69
2022/01/14 09:53:59;;;;;;;13.60;10.73;;;;;;;;;;4988216;28;20543;-69
2022/01/14 09:56:27;;;;;;;12.57;9.50;;;;;;;;;;4983284;28;20505;-69
2022/01/14 09:58:54;;;;;;;15.53;10.77;;;;;;;;;;4981088;28;20561;-69
2022/01/14 10:01:24;;;;;;;9.77;8.43;;;;;;;;;;4986843;28;20464;-69
2022/01/14 10:03:53;;;;;;;12.63;9.80;;;;;;;;;;4988459;28;20873;-68
2022/01/14 10:06:36;;;;;;;17.17;10.53;;;;;;;;;;4984653;28;20559;-69
2022/01/14 10:09:07;;;;;;;12.37;9.00;;;;;;;;;;4982237;28;20512;-70
2022/01/14 10:11:35;;;;;;;13.73;9.17;;;;;;;;;;4983114;28;20545;-69
2022/01/14 10:14:06;;;;;;;11.80;8.10;;;;;;;;;;5003383;28;20532;-69
2022/01/14 10:16:34;;;;;;;11.50;9.50;;;;;;;;;;4981739;28;20532;-69
2022/01/14 10:19:02;;;;;;;15.70;8.73;;;;;;;;;;4982107;28;20460;-69
2022/01/14 10:21:33;;;;;;;14.33;9.50;;;;;;;;;;4981296;28;20456;-69
2022/01/14 10:24:00;;;;;;;11.93;8.50;;;;;;;;;;4987489;28;20816;-69
2022/01/14 10:26:30;;;;;;;15.23;10.50;;;;;;;;;;4987963;28;20580;-71
2022/01/14 10:29:01;;;;;;;10.63;8.53;;;;;;;;;;4982361;28;20576;-69
2022/01/14 10:31:33;;;;;;;12.93;7.93;;;;;;;;;;4981226;28;20540;-69
2022/01/14 10:34:13;;;;;;;10.33;8.20;;;;;;;;;;4985521;28;20469;-69
2022/01/14 10:36:43;;;;;;;10.10;7.03;;;;;;;;;;4992957;28;20583;-69
2022/01/14 10:39:21;;;;;;;11.70;7.70;;;;;;;;;;4982279;28;20450;-69
2022/01/14 10:41:48;;;;;;;10.80;7.00;;;;;;;;;;4981852;28;20474;-69
2022/01/14 10:44:27;;;;;;;11.83;7.77;;;;;;;;;;4995163;28;20993;-69
2022/01/14 10:47:09;;;;;;;11.77;7.80;;;;;;;;;;4984055;28;20519;-70
2022/01/14 10:49:38;;;;;;;8.63;7.40;;;;;;;;;;4980671;28;21007;-69
2022/01/14 10:52:12;;;;;;;11.33;7.70;;;;;;;;;;4981601;28;20449;-69
2022/01/14 10:54:40;;;;;;;15.20;7.87;;;;;;;;;;4981035;28;20456;-69
2022/01/14 10:57:15;;;;;;;9.63;7.40;;;;;;;;;;4981186;28;20553;-70
2022/01/14 10:59:42;;;;;;;14.13;9.20;;;;;;;;;;4985005;28;20540;-69
2022/01/14 11:02:24;;;;;;;15.90;10.17;;;;;;;;;;4987358;28;20541;-70
2022/01/14 11:05:12;;;;;;;14.07;9.90;;;;;;;;;;4984550;28;20488;-70
2022/01/14 11:07:40;;;;;;;17.10;13.43;;;;;;;;;;4986330;28;20486;-70
2022/01/14 11:10:22;;;;;;;19.47;13.63;;;;;;;;;;4987221;28;20579;-69
2022/01/14 11:12:49;;;;;;;16.93;12.50;;;;;;;;;;4989357;28;20451;-69
2022/01/14 11:15:17;;;;;;;17.50;13.00;;;;;;;;;;4993756;28;20958;-69
2022/01/14 11:17:49;;;;;;;26.33;17.70;;;;;;;;;;4984025;28;20532;-69
2022/01/14 11:20:22;;;;;;;20.67;14.43;;;;;;;;;;4980190;28;20524;-70
2022/01/14 11:25:38;;;;;;;18.00;12.73;;;;;;;;;;4981847;28;21033;-69
2022/01/14 11:28:05;;;;;;;19.40;13.20;;;;;;;;;;4980757;28;20529;-70
2022/01/14 11:30:34;;;;;;;19.80;14.73;;;;;;;;;;4984973;28;20490;-70
2022/01/14 11:33:03;;;;;;;17.30;12.80;;;;;;;;;;4987155;28;20460;-70
2022/01/14 11:35:32;;;;;;;24.20;13.57;;;;;;;;;;4985381;28;20453;-70
2022/01/14 11:38:00;;;;;;;21.77;13.90;;;;;;;;;;4989629;28;20450;-69
2022/01/14 11:40:28;;;;;;;20.97;13.03;;;;;;;;;;4983951;28;20948;-70
2022/01/14 11:42:59;;;;;;;21.53;14.07;;;;;;;;;;4984117;28;20721;-70
2022/01/14 11:45:59;;;;;;;20.17;14.03;;;;;;;;;;4982005;28;20578;-70
2022/01/14 11:48:35;;;;;;;17.00;12.67;;;;;;;;;;4923541;29;20547;-70
2022/01/14 11:51:05;;;;;;;16.13;13.07;;;;;;;;;;4919980;29;20451;-71
2022/01/14 11:53:39;;;;;;;19.23;13.27;;;;;;;;;;4933357;29;20451;-70
2022/01/14 11:56:08;;;;;;;17.90;13.37;;;;;;;;;;4920335;29;20468;-69
2022/01/14 11:58:36;;;;;;;19.80;15.00;;;;;;;;;;4933326;29;20456;-71
2022/01/14 12:01:04;;;;;;;19.30;14.50;;;;;;;;;;4926436;29;20495;-71
2022/01/14 12:03:31;;;;;;;26.10;14.37;;;;;;;;;;4926763;29;20499;-71
2022/01/14 12:06:00;;;;;;;19.77;13.07;;;;;;;;;;4925630;29;20484;-71
2022/01/14 12:08:29;;;;;;;19.20;13.33;;;;;;;;;;4926801;29;20447;-68
2022/01/14 12:10:58;;;;;;;19.20;14.17;;;;;;;;;;4923775;29;20476;-70
2022/01/14 12:13:36;;;;;;;21.10;14.07;;;;;;;;;;4926392;29;20466;-70
2022/01/14 12:16:05;;;;;;;26.00;14.30;;;;;;;;;;4923684;29;20466;-71
2022/01/14 12:18:51;;;;;;;15.37;12.00;;;;;;;;;;4938607;28;20469;-70
2022/01/14 12:21:18;;;;;;;19.60;14.23;;;;;;;;;;4985819;28;20531;-71
2022/01/14 12:23:47;;;;;;;20.50;13.20;;;;;;;;;;4979071;28;20870;-71
2022/01/14 12:26:15;;;;;;;18.20;12.40;;;;;;;;;;4979703;28;20513;-70
2022/01/14 12:28:43;;;;;;;17.97;13.17;;;;;;;;;;4992037;28;20488;-71
2022/01/14 12:31:10;;;;;;;29.63;13.20;;;;;;;;;;4992087;28;20539;-71
2022/01/14 12:33:40;;;;;;;18.80;13.73;;;;;;;;;;4992001;28;20471;-69
2022/01/14 12:36:12;;;;;;;19.40;13.83;;;;;;;;;;4977668;28;20446;-71
2022/01/14 12:38:40;;;;;;;21.10;13.30;;;;;;;;;;4983575;28;20458;-69
2022/01/14 12:41:15;;;;;;;20.77;14.40;;;;;;;;;;4985125;28;20868;-72
2022/01/14 12:43:49;;;;;;;19.37;14.23;;;;;;;;;;4987148;28;20445;-69
2022/01/14 12:46:34;;;;;;;22.00;14.50;;;;;;;;;;4978625;28;20877;-70
2022/01/14 12:49:07;;;;;;;18.87;13.83;;;;;;;;;;4979248;28;20442;-70
2022/01/14 12:51:34;;;;;;;24.33;14.63;;;;;;;;;;4983432;28;21002;-70
2022/01/14 12:54:04;;;;;;;29.57;14.63;;;;;;;;;;4985342;28;20457;-70
2022/01/14 12:56:34;;;;;;;22.60;14.30;;;;;;;;;;4981757;28;20460;-70
2022/01/14 12:59:05;;;;;;;24.57;17.27;;;;;;;;;;4978819;28;20449;-70
2022/01/14 13:01:33;;;;;;;21.23;15.37;;;;;;;;;;4981628;28;20566;-69
2022/01/14 13:04:03;;;;;;;22.87;15.90;;;;;;;;;;4985159;28;20488;-70
2022/01/14 13:06:41;;;;;;;20.27;14.80;;;;;;;;;;4983743;28;20971;-70
2022/01/14 13:09:08;;;;;;;22.33;14.87;;;;;;;;;;4985380;28;20957;-70
2022/01/14 13:11:47;;;;;;;20.90;14.37;;;;;;;;;;4985004;28;20548;-69
2022/01/14 13:14:17;;;;;;;24.90;14.37;;;;;;;;;;5000533;28;20539;-70
2022/01/14 13:16:45;;;;;;;19.03;15.00;;;;;;;;;;4977702;28;20450;-69
2022/01/14 13:19:26;;;;;;;16.40;12.83;;;;;;;;;;4982953;28;20887;-70
2022/01/14 13:21:53;;;;;;;22.70;14.83;;;;;;;;;;4984601;28;20453;-70
2022/01/14 13:24:21;;;;;;;19.70;15.00;;;;;;;;;;4983148;28;20453;-70
2022/01/14 13:27:15;;;;;;;19.00;14.40;;;;;;;;;;4978061;28;20517;-69
2022/01/14 13:29:45;;;;;;;18.77;14.97;;;;;;;;;;4953927;28;20573;-70
2022/01/14 13:32:13;;;;;;;21.17;14.40;;;;;;;;;;4980366;28;20960;-70
2022/01/14 13:34:45;;;;;;;24.03;16.33;;;;;;;;;;4978907;28;20537;-70
2022/01/14 13:37:12;;;;;;;19.93;13.80;;;;;;;;;;4981676;28;20540;-70
2022/01/14 13:39:39;;;;;;;18.60;13.80;;;;;;;;;;4984399;28;20824;-70
2022/01/14 13:42:07;;;;;;;19.00;13.67;;;;;;;;;;4982093;28;20549;-70
2022/01/14 13:44:35;;;;;;;17.83;12.90;;;;;;;;;;4984854;28;20528;-70
2022/01/14 13:47:09;;;;;;;19.97;14.80;;;;;;;;;;4982569;28;20460;-70
2022/01/14 13:49:36;;;;;;;16.37;14.13;;;;;;;;;;4977253;28;20477;-70
2022/01/14 13:52:12;;;;;;;16.50;13.67;;;;;;;;;;4980041;28;20553;-70
2022/01/14 13:54:40;;;;;;;21.63;15.30;;;;;;;;;;4984112;28;20515;-70
2022/01/14 13:57:11;;;;;;;18.17;14.17;;;;;;;;;;4984749;28;20495;-70
2022/01/14 13:59:38;;;;;;;20.17;14.80;;;;;;;;;;4977890;28;20461;-70
2022/01/14 14:02:08;;;;;;;22.33;14.97;;;;;;;;;;4978152;28;20458;-70
2022/01/14 14:04:42;;;;;;;19.67;14.57;;;;;;;;;;4982844;28;20442;-69
2022/01/14 14:07:12;;;;;;;18.37;14.23;;;;;;;;;;4984552;28;20525;-70
2022/01/14 14:09:45;;;;;;;21.30;14.00;;;;;;;;;;4980267;28;20576;-69
2022/01/14 14:12:26;;;;;;;19.77;15.00;;;;;;;;;;4978558;28;20973;-70
2022/01/14 14:17:40;;;;;;;19.37;13.50;;;;;;;;;;4980249;28;20428;-70
2022/01/14 14:20:08;;;;;;;19.83;15.33;;;;;;;;;;4977469;28;20536;-70
2022/01/14 14:22:41;;;;;;;19.83;15.47;;;;;;;;;;4981251;28;20581;-69
2022/01/14 14:25:11;;;;;;;18.53;15.43;;;;;;;;;;4984974;28;20477;-70
2022/01/14 14:27:40;;;;;;;27.33;14.33;;;;;;;;;;4982229;28;20504;-70
2022/01/14 14:30:09;;;;;;;21.30;15.23;;;;;;;;;;4978016;28;20489;-70
2022/01/14 14:32:37;;;;;;;18.13;15.17;;;;;;;;;;4982117;28;20540;-70
2022/01/14 14:35:07;;;;;;;18.73;14.27;;;;;;;;;;4988392;28;20816;-71
2022/01/14 14:37:37;;;;;;;22.30;13.73;;;;;;;;;;4988214;28;20445;-71
2022/01/14 14:40:05;;;;;;;20.80;14.80;;;;;;;;;;4981368;28;20459;-71
2022/01/14 14:42:33;;;;;;;19.23;14.50;;;;;;;;;;4986872;28;20826;-71